Guide — WDE7328 — position and weather

sailwx.info

Track history (hours):
 
Tides and Currents Weather Stations Pressure Air Temp Water Temp Dewpoint Dewpoint Depression Visibility Wind Speed Wind Dir Waves Ship Positions

Guide

Owner: CROWLEY MARINE SERVICES INC, SEATTLE, WA. More information available from US FCC via Universal Licensing System and Coast Guard Vessel Documentation Center.

Last reported at 2015-Mar-27 16:33 UTC. Time now 2015-Mar-27 17:24 UTC.
Position N 47°15' W 122°26'.

Length 34 m; draft 5.1 m.

Type: Tug. MMSI: 366759530.

Date/timePositionNaut miles runAvg speedWind from/ knotsBaromVisibWave heightAir tempDewpointWater temp
2015-Mar-27 16:33N 47°15' W 122°26'0 0.0
2015-Mar-27 15:33N 47°15' W 122°26'0 0.0
2015-Mar-27 14:33N 47°15' W 122°26'2 1.5
2015-Mar-27 13:32N 47°17' W 122°25'1 1.2
2015-Mar-27 12:33N 47°17' W 122°26'1 1.4
2015-Mar-27 11:33N 47°16' W 122°24'1 1.2
2015-Mar-27 10:33N 47°16' W 122°23'1 0.8
2015-Mar-27 09:33N 47°16' W 122°24'0 0.0
2015-Mar-27 08:27N 47°16' W 122°24'0 0.0
2015-Mar-27 07:33N 47°16' W 122°24'0 0.0
2015-Mar-27 06:33N 47°16' W 122°24'0 0.0
2015-Mar-27 05:33N 47°16' W 122°24'0 0.0
2015-Mar-27 04:33N 47°16' W 122°24'0 0.0
2015-Mar-27 03:33N 47°16' W 122°24'0 0.3
2015-Mar-27 02:33N 47°16' W 122°24'1 0.7
2015-Mar-27 01:33N 47°17' W 122°25'2 2.1
2015-Mar-27 00:33N 47°15' W 122°23'6 6.1
2015-Mar-26 23:33N 47°21' W 122°25'5 7.9
2015-Mar-26 22:59N 47°26' W 122°24'4 9.6
2015-Mar-26 22:33N 47°30' W 122°26'2 9.8
2015-Mar-26 22:19N 47°32' W 122°27'5 6.6
2015-Mar-26 21:33N 47°35' W 122°21'0 0.1
2015-Mar-26 21:29N 47°35' W 122°21'0 0.0
2015-Mar-26 20:33N 47°35' W 122°21'0 0.0
2015-Mar-26 20:29N 47°35' W 122°21'0 0.0
2015-Mar-26 19:32N 47°35' W 122°21'0 0.0
2015-Mar-26 19:12N 47°35' W 122°21'0 0.0
2015-Mar-26 18:32N 47°35' W 122°21'0 0.0
2015-Mar-26 17:39N 47°35' W 122°21'0 0.0
2015-Mar-26 17:33N 47°35' W 122°21'0 0.0
2015-Mar-26 17:13N 47°35' W 122°21'0 0.0
2015-Mar-26 16:32N 47°35' W 122°21'0 0.0
2015-Mar-26 16:16N 47°35' W 122°21'2 2.2
2015-Mar-26 15:33N 47°36' W 122°23'0 7.1
2015-Mar-26 15:31N 47°36' W 122°24'8 8.1
2015-Mar-26 14:33N 47°44' W 122°27'0 7.9
2015-Mar-26 14:31N 47°44' W 122°27'1010.2
2015-Mar-26 13:33N 47°54' W 122°30'0 8.7
2015-Mar-26 13:31N 47°54' W 122°30'12 9.7
2015-Mar-26 12:19N 48°04' W 122°39'7 8.6
2015-Mar-26 11:28N 48°10' W 122°46'10 9.5
2015-Mar-26 10:27N 48°19' W 122°47'910.0
2015-Mar-26 09:33N 48°28' W 122°44'7 6.6
2015-Mar-26 08:33N 48°31' W 122°35'0 0.1
2015-Mar-26 07:33N 48°31' W 122°35'1 0.8
2015-Mar-26 06:33N 48°31' W 122°35'0 0.4
2015-Mar-26 05:33N 48°31' W 122°35'1 0.7
2015-Mar-26 04:33N 48°31' W 122°35'2 1.5
2015-Mar-26 03:33N 48°31' W 122°37'0 0.0
2015-Mar-26 02:33N 48°31' W 122°37'0 0.0
2015-Mar-26 01:33N 48°31' W 122°37'9 8.4
2015-Mar-26 00:33N 48°24' W 122°44'10 9.3
2015-Mar-25 23:29N 48°15' W 122°48'1010.3
2015-Mar-25 22:31N 48°07' W 122°39'911.7
2015-Mar-25 21:44N 47°58' W 122°34'211.9
2015-Mar-25 21:33N 47°57' W 122°32'110.1
2015-Mar-25 21:29N 47°56' W 122°31'1010.7
2015-Mar-25 20:33N 47°47' W 122°26'210.1
2015-Mar-25 20:24N 47°46' W 122°25'910.6
2015-Mar-25 19:33N 47°37' W 122°27'1 9.2
2015-Mar-25 19:29N 47°36' W 122°27'7 7.0
2015-Mar-25 18:33N 47°34' W 122°36'1 8.7
2015-Mar-25 18:29N 47°34' W 122°37'0 0.2
2015-Mar-25 17:33N 47°33' W 122°37'0 6.1
2015-Mar-25 17:29N 47°34' W 122°36'4 4.2
2015-Mar-25 16:33N 47°34' W 122°31'0 5.9
2015-Mar-25 16:29N 47°34' W 122°30'6 6.4
2015-Mar-25 15:33N 47°40' W 122°29'0 6.5
2015-Mar-25 15:29N 47°41' W 122°28'7 7.3
2015-Mar-25 14:33N 47°47' W 122°27'7 7.3
2015-Mar-25 13:33N 47°54' W 122°22'7 6.9
2015-Mar-25 12:33N 47°59' W 122°15'1 0.5
2015-Mar-25 11:32N 47°59' W 122°14'3 2.7
2015-Mar-25 10:35N 47°58' W 122°17'0 9.8
2015-Mar-25 10:33N 47°58' W 122°18'4 9.4
2015-Mar-25 10:05N 47°54' W 122°21'5 9.9
2015-Mar-25 09:33N 47°49' W 122°24'0 9.3
2015-Mar-25 09:31N 47°49' W 122°25'1010.9
2015-Mar-25 08:33N 47°38' W 122°27'0 9.4
2015-Mar-25 08:31N 47°38' W 122°27'1010.6
2015-Mar-25 07:33N 47°28' W 122°24'9 8.5
2015-Mar-25 06:33N 47°20' W 122°26'0 8.6
2015-Mar-25 06:31N 47°19' W 122°26'4 4.1
2015-Mar-25 05:33N 47°15' W 122°26'0 0.0
2015-Mar-25 04:33N 47°15' W 122°26'0 0.0
2015-Mar-25 03:33N 47°15' W 122°26'0 0.0
2015-Mar-25 02:33N 47°15' W 122°26'0 0.0
2015-Mar-25 01:33N 47°15' W 122°26'0 0.0
2015-Mar-25 00:33N 47°15' W 122°26'0 0.0
2015-Mar-24 23:33N 47°15' W 122°26'0 0.0
2015-Mar-24 22:33N 47°15' W 122°26'0 0.0
2015-Mar-24 21:33N 47°15' W 122°26'0 0.0
2015-Mar-24 20:33N 47°15' W 122°26'0 0.0
2015-Mar-24 19:28N 47°15' W 122°26'0 0.0
2015-Mar-24 18:33N 47°15' W 122°26'3 2.6
2015-Mar-24 17:33N 47°16' W 122°22'0 0.1
2015-Mar-24 16:33N 47°16' W 122°22'3 2.6
2015-Mar-24 15:33N 47°17' W 122°25'1 1.1
2015-Mar-24 14:33N 47°17' W 122°25'2 1.8
2015-Mar-24 13:33N 47°15' W 122°23'3 3.1
2015-Mar-24 12:33N 47°18' W 122°26'0 0.2
2015-Mar-24 11:33N 47°18' W 122°26'0 0.0
2015-Mar-24 10:33N 47°18' W 122°26'0 0.0
2015-Mar-24 09:33N 47°18' W 122°26'0 0.0
2015-Mar-24 08:33N 47°18' W 122°26'0 0.0
2015-Mar-24 07:33N 47°18' W 122°26'3 2.6
2015-Mar-24 06:33N 47°16' W 122°23'1 1.0
2015-Mar-24 05:33N 47°16' W 122°24'2 1.4
2015-Mar-24 04:30N 47°18' W 122°26'2 1.9
2015-Mar-24 03:32N 47°16' W 122°24'1 1.1
2015-Mar-24 02:33N 47°16' W 122°23'0 0.4
2015-Mar-24 01:33N 47°16' W 122°23'1 1.3
2015-Mar-24 00:33N 47°17' W 122°25'1 0.6
2015-Mar-23 23:33N 47°16' W 122°25'1 1.5
2015-Mar-23 22:33N 47°16' W 122°23'1 1.1
2015-Mar-23 21:33N 47°17' W 122°25'0 0.1
2015-Mar-23 20:33N 47°17' W 122°25'2 1.6
2015-Mar-23 19:33N 47°15' W 122°26'0 0.0
2015-Mar-23 18:33N 47°15' W 122°26'0 0.0
2015-Mar-23 17:33N 47°15' W 122°26'0 0.0
2015-Mar-23 16:33N 47°15' W 122°26'0 0.0
2015-Mar-23 15:33N 47°15' W 122°26'2 1.6
2015-Mar-23 14:33N 47°17' W 122°25'1 0.9
2015-Mar-23 13:33N 47°16' W 122°24'2 1.7
2015-Mar-23 12:33N 47°17' W 122°25'0 0.5
2015-Mar-23 11:33N 47°18' W 122°26'2 2.0
2015-Mar-23 10:32N 47°16' W 122°24'1 1.0
2015-Mar-23 09:33N 47°15' W 122°23'0 0.2
2015-Mar-23 08:33N 47°15' W 122°23'0 0.1
2015-Mar-23 07:33N 47°16' W 122°23'0 0.0
2015-Mar-23 06:33N 47°16' W 122°23'0 0.0
2015-Mar-23 05:33N 47°16' W 122°23'0 0.0
2015-Mar-23 04:33N 47°16' W 122°23'5 4.7
2015-Mar-23 03:33N 47°19' W 122°27'2 7.9
2015-Mar-23 03:22N 47°20' W 122°26'6 7.4
2015-Mar-23 02:33N 47°26' W 122°24'1 9.1
2015-Mar-23 02:26N 47°27' W 122°25'8 8.8
2015-Mar-23 01:33N 47°35' W 122°25'0 8.5
2015-Mar-23 01:32N 47°35' W 122°25'3 3.1
2015-Mar-23 00:33N 47°35' W 122°21'0 0.4
2015-Mar-23 00:32N 47°35' W 122°21'2 1.8
2015-Mar-22 23:32N 47°37' W 122°21'0 0.1
2015-Mar-22 23:25N 47°37' W 122°21'2 2.2
2015-Mar-22 22:33N 47°35' W 122°21'0 0.0
2015-Mar-22 22:31N 47°35' W 122°21'0 0.0
2015-Mar-22 21:33N 47°35' W 122°21'0 0.0
2015-Mar-22 21:26N 47°35' W 122°21'0 0.0
2015-Mar-22 20:33N 47°35' W 122°21'0 0.0
2015-Mar-22 20:25N 47°35' W 122°21'0 0.0
2015-Mar-22 19:33N 47°35' W 122°21'0 1.1
2015-Mar-22 19:30N 47°35' W 122°21'1 0.6
2015-Mar-22 18:33N 47°35' W 122°22'0 0.0
2015-Mar-22 18:31N 47°35' W 122°22'1 1.1
2015-Mar-22 17:33N 47°36' W 122°22'0 0.8
2015-Mar-22 17:31N 47°36' W 122°23'2 2.6
2015-Mar-22 16:33N 47°35' W 122°26'110.5
2015-Mar-22 16:31N 47°34' W 122°26'1010.9
2015-Mar-22 15:33N 47°24' W 122°22'8 7.9
2015-Mar-22 14:33N 47°16' W 122°25'2 1.5
2015-Mar-22 13:33N 47°18' W 122°26'2 1.7
2015-Mar-22 12:33N 47°16' W 122°24'0 0.1
2015-Mar-22 11:33N 47°16' W 122°24'1 1.5
2015-Mar-22 10:33N 47°15' W 122°23'0 0.0
2015-Mar-22 09:33N 47°15' W 122°23'1 1.0
2015-Mar-22 08:32N 47°16' W 122°24'0 0.0
2015-Mar-22 07:31N 47°16' W 122°24'0 0.0
2015-Mar-22 06:30N 47°16' W 122°24'0 0.0
2015-Mar-22 04:33N 47°16' W 122°24'0 0.0
2015-Mar-22 03:33N 47°16' W 122°24'0 0.0
2015-Mar-22 02:33N 47°16' W 122°24'1 1.1
2015-Mar-22 01:33N 47°17' W 122°25'0 0.4
2015-Mar-22 00:33N 47°17' W 122°25'1 1.2
2015-Mar-21 23:33N 47°18' W 122°26'2 2.2
2015-Mar-21 22:33N 47°15' W 122°26'0 0.0
2015-Mar-21 21:33N 47°15' W 122°26'0 0.0
2015-Mar-21 20:33N 47°15' W 122°26'0 0.0
2015-Mar-21 19:33N 47°15' W 122°26'0 0.0
2015-Mar-21 18:33N 47°15' W 122°26'0 0.0
2015-Mar-21 17:33N 47°15' W 122°26'0 0.0
2015-Mar-21 16:33N 47°15' W 122°26'0 0.0
2015-Mar-21 15:33N 47°15' W 122°26'2 1.7
2015-Mar-21 14:32N 47°16' W 122°24'0 0.2
2015-Mar-21 13:33N 47°16' W 122°24'1 0.9
2015-Mar-21 12:33N 47°15' W 122°23'1 1.4
2015-Mar-21 11:33N 47°16' W 122°24'0 0.1
2015-Mar-21 10:33N 47°16' W 122°24'1 1.0
2015-Mar-21 09:33N 47°16' W 122°23'2 2.0
2015-Mar-21 08:33N 47°15' W 122°26'0 0.0
2015-Mar-21 07:33N 47°15' W 122°26'0 0.0
2015-Mar-21 06:33N 47°15' W 122°26'0 0.0
2015-Mar-21 05:33N 47°15' W 122°26'0 0.0
2015-Mar-21 04:33N 47°15' W 122°26'0 0.0
2015-Mar-21 03:33N 47°15' W 122°26'3 2.9
2015-Mar-21 02:33N 47°18' W 122°27'7 7.2
2015-Mar-21 01:33N 47°25' W 122°23'3 8.8
2015-Mar-21 01:11N 47°27' W 122°25'6 9.2
2015-Mar-21 00:33N 47°33' W 122°27'0 9.9
2015-Mar-21 00:31N 47°34' W 122°27'4 4.7
2015-Mar-20 23:33N 47°35' W 122°21'0 0.3
2015-Mar-20 23:31N 47°35' W 122°21'2 2.0
2015-Mar-20 22:33N 47°37' W 122°21'0 0.0
2015-Mar-20 22:26N 47°37' W 122°21'2 2.1
2015-Mar-20 21:33N 47°35' W 122°21'0 0.0
2015-Mar-20 21:25N 47°35' W 122°21'0 0.0
2015-Mar-20 20:33N 47°35' W 122°21'0 0.1
2015-Mar-20 20:30N 47°35' W 122°21'1 0.7
2015-Mar-20 19:33N 47°35' W 122°21'0 0.1
2015-Mar-20 19:29N 47°35' W 122°21'0 0.4
2015-Mar-20 18:33N 47°36' W 122°21'0 0.3
2015-Mar-20 18:29N 47°36' W 122°21'0 0.1
2015-Mar-20 17:33N 47°35' W 122°21'0 0.6
2015-Mar-20 17:29N 47°35' W 122°21'0 0.1
2015-Mar-20 16:33N 47°35' W 122°21'0 0.1
2015-Mar-20 16:29N 47°35' W 122°21'0 0.0
2015-Mar-20 15:33N 47°35' W 122°21'0 0.0
2015-Mar-20 15:29N 47°35' W 122°21'0 0.0
2015-Mar-20 14:33N 47°35' W 122°21'0 0.0
2015-Mar-20 14:29N 47°35' W 122°21'4 4.0
2015-Mar-20 13:33N 47°34' W 122°26'1 9.1
2015-Mar-20 13:29N 47°33' W 122°26'9 9.5
2015-Mar-20 12:33N 47°25' W 122°22'2 8.7
2015-Mar-20 12:18N 47°23' W 122°21'6 7.8
2015-Mar-20 11:33N 47°18' W 122°26'0 0.2
2015-Mar-20 10:33N 47°18' W 122°26'0 0.0
2015-Mar-20 09:33N 47°18' W 122°26'2 1.8
2015-Mar-20 08:30N 47°17' W 122°23'0 0.3
2015-Mar-20 07:31N 47°17' W 122°24'4 7.1
2015-Mar-20 06:57N 47°20' W 122°27'410.6
2015-Mar-20 06:33N 47°23' W 122°22'510.1
2015-Mar-20 06:03N 47°28' W 122°25'510.2
2015-Mar-20 05:33N 47°33' W 122°27'5 4.7
2015-Mar-20 04:33N 47°35' W 122°21'0 0.0
2015-Mar-20 04:33N 47°35' W 122°21'4 4.1
2015-Mar-20 03:33N 47°32' W 122°25'10 9.6
2015-Mar-20 02:33N 47°23' W 122°21'6 6.3
2015-Mar-20 01:33N 47°18' W 122°26'0 0.0
2015-Mar-20 00:33N 47°18' W 122°26'0 0.0
2015-Mar-19 23:33N 47°18' W 122°26'0 0.0
2015-Mar-19 22:32N 47°18' W 122°26'0 0.0
2015-Mar-19 21:33N 47°18' W 122°26'0 0.0
2015-Mar-19 20:33N 47°18' W 122°26'0 0.0
2015-Mar-19 19:27N 47°18' W 122°26'1 1.6
2015-Mar-19 18:33N 47°16' W 122°25'1 0.8
2015-Mar-19 17:08N 47°15' W 122°26'0 0.0
2015-Mar-19 16:33N 47°15' W 122°26'0 0.0
2015-Mar-19 15:33N 47°15' W 122°26'0 0.0
2015-Mar-19 14:33N 47°15' W 122°26'2 1.6
2015-Mar-19 13:33N 47°17' W 122°25'1 1.3
2015-Mar-19 12:33N 47°17' W 122°23'0 0.0
2015-Mar-19 11:33N 47°17' W 122°23'1 1.1
2015-Mar-19 10:32N 47°16' W 122°25'0 0.0
2015-Mar-19 09:33N 47°16' W 122°25'1 0.5
2015-Mar-19 08:33N 47°17' W 122°24'0 0.4
2015-Mar-19 07:33N 47°16' W 122°24'0 0.0
2015-Mar-19 06:33N 47°16' W 122°24'0 0.0
2015-Mar-19 05:33N 47°16' W 122°24'0 0.3
2015-Mar-19 04:33N 47°16' W 122°24'0 0.3
2015-Mar-19 03:33N 47°16' W 122°24'0 0.0
2015-Mar-19 02:33N 47°16' W 122°24'2 1.5
2015-Mar-19 01:33N 47°17' W 122°26'2 1.5
2015-Mar-19 00:33N 47°16' W 122°24'0 0.3
2015-Mar-18 23:33N 47°17' W 122°24'1 1.3
2015-Mar-18 22:33N 47°16' W 122°26'1 0.8
2015-Mar-18 21:33N 47°15' W 122°26'0 0.0
2015-Mar-18 20:33N 47°15' W 122°26'0 0.0
2015-Mar-18 19:33N 47°15' W 122°26'0 0.0
2015-Mar-18 18:33N 47°15' W 122°26'0 0.0
2015-Mar-18 17:33N 47°15' W 122°26'0 0.0
2015-Mar-18 16:33N 47°15' W 122°26'0 0.0
2015-Mar-18 15:33N 47°15' W 122°26'0 0.0
2015-Mar-18 14:33N 47°15' W 122°26'2 1.8
2015-Mar-18 13:33N 47°16' W 122°24'0 0.4
2015-Mar-18 12:33N 47°16' W 122°24'2 1.8
2015-Mar-18 11:33N 47°18' W 122°26'0 0.0
2015-Mar-18 10:33N 47°18' W 122°26'0 0.0
2015-Mar-18 09:33N 47°18' W 122°26'0 0.0
2015-Mar-18 08:33N 47°18' W 122°26'0 0.0
2015-Mar-18 07:33N 47°18' W 122°26'0 0.0
2015-Mar-18 06:33N 47°18' W 122°26'2 2.2
2015-Mar-18 05:33N 47°16' W 122°24'2 1.6
2015-Mar-18 04:33N 47°17' W 122°25'3 9.2
2015-Mar-18 04:12N 47°20' W 122°27'6 8.6
2015-Mar-18 03:33N 47°25' W 122°23'4 9.8
2015-Mar-18 03:07N 47°30' W 122°24'610.1
2015-Mar-18 02:33N 47°35' W 122°25'0 9.6
2015-Mar-18 02:32N 47°35' W 122°25'3 2.8
2015-Mar-18 01:33N 47°35' W 122°21'1 0.8
2015-Mar-18 00:51N 47°35' W 122°21'0 0.0
2015-Mar-18 00:33N 47°35' W 122°21'0 1.2
2015-Mar-18 00:30N 47°35' W 122°21'5 5.3
2015-Mar-17 23:33N 47°31' W 122°25'1 9.9
2015-Mar-17 23:26N 47°29' W 122°24'8 8.8
2015-Mar-17 22:33N 47°22' W 122°23'5 5.2
2015-Mar-17 21:33N 47°17' W 122°25'1 1.2
2015-Mar-17 20:33N 47°16' W 122°26'1 0.7
2015-Mar-17 19:33N 47°15' W 122°26'0 0.0
2015-Mar-17 18:33N 47°15' W 122°26'0 0.0
2015-Mar-17 17:33N 47°15' W 122°26'  
Track history (hours):
 
Tides and Currents Weather Stations Pressure Air Temp Water Temp Dewpoint Dewpoint Depression Visibility Wind Speed Wind Dir Waves Ship Positions

Guide

Owner: CROWLEY MARINE SERVICES INC, SEATTLE, WA. More information available from US FCC via Universal Licensing System and Coast Guard Vessel Documentation Center.

Last reported at 2015-Mar-27 16:33 UTC. Time now 2015-Mar-27 17:24 UTC.
Position N 47°15' W 122°26'.

Length 34 m; draft 5.1 m.

Type: Tug. MMSI: 366759530.

Date/timePositionNaut miles runAvg speedWind from/ knotsBaromVisibWave heightAir tempDewpointWater temp
2015-Mar-27 16:33N 47°15' W 122°26'0 0.0
2015-Mar-27 15:33N 47°15' W 122°26'0 0.0
2015-Mar-27 14:33N 47°15' W 122°26'2 1.5
2015-Mar-27 13:32N 47°17' W 122°25'1 1.2
2015-Mar-27 12:33N 47°17' W 122°26'1 1.4
2015-Mar-27 11:33N 47°16' W 122°24'1 1.2
2015-Mar-27 10:33N 47°16' W 122°23'1 0.8
2015-Mar-27 09:33N 47°16' W 122°24'0 0.0
2015-Mar-27 08:27N 47°16' W 122°24'0 0.0
2015-Mar-27 07:33N 47°16' W 122°24'0 0.0
2015-Mar-27 06:33N 47°16' W 122°24'0 0.0
2015-Mar-27 05:33N 47°16' W 122°24'0 0.0
2015-Mar-27 04:33N 47°16' W 122°24'0 0.0
2015-Mar-27 03:33N 47°16' W 122°24'0 0.3
2015-Mar-27 02:33N 47°16' W 122°24'1 0.7
2015-Mar-27 01:33N 47°17' W 122°25'2 2.1
2015-Mar-27 00:33N 47°15' W 122°23'6 6.1
2015-Mar-26 23:33N 47°21' W 122°25'5 7.9
2015-Mar-26 22:59N 47°26' W 122°24'4 9.6
2015-Mar-26 22:33N 47°30' W 122°26'2 9.8
2015-Mar-26 22:19N 47°32' W 122°27'5 6.6
2015-Mar-26 21:33N 47°35' W 122°21'0 0.1
2015-Mar-26 21:29N 47°35' W 122°21'0 0.0
2015-Mar-26 20:33N 47°35' W 122°21'0 0.0
2015-Mar-26 20:29N 47°35' W 122°21'0 0.0
2015-Mar-26 19:32N 47°35' W 122°21'0 0.0
2015-Mar-26 19:12N 47°35' W 122°21'0 0.0
2015-Mar-26 18:32N 47°35' W 122°21'0 0.0
2015-Mar-26 17:39N 47°35' W 122°21'0 0.0
2015-Mar-26 17:33N 47°35' W 122°21'0 0.0
2015-Mar-26 17:13N 47°35' W 122°21'0 0.0
2015-Mar-26 16:32N 47°35' W 122°21'0 0.0
2015-Mar-26 16:16N 47°35' W 122°21'2 2.2
2015-Mar-26 15:33N 47°36' W 122°23'0 7.1
2015-Mar-26 15:31N 47°36' W 122°24'8 8.1
2015-Mar-26 14:33N 47°44' W 122°27'0 7.9
2015-Mar-26 14:31N 47°44' W 122°27'1010.2
2015-Mar-26 13:33N 47°54' W 122°30'0 8.7
2015-Mar-26 13:31N 47°54' W 122°30'12 9.7
2015-Mar-26 12:19N 48°04' W 122°39'7 8.6
2015-Mar-26 11:28N 48°10' W 122°46'10 9.5
2015-Mar-26 10:27N 48°19' W 122°47'910.0
2015-Mar-26 09:33N 48°28' W 122°44'7 6.6
2015-Mar-26 08:33N 48°31' W 122°35'0 0.1
2015-Mar-26 07:33N 48°31' W 122°35'1 0.8
2015-Mar-26 06:33N 48°31' W 122°35'0 0.4
2015-Mar-26 05:33N 48°31' W 122°35'1 0.7
2015-Mar-26 04:33N 48°31' W 122°35'2 1.5
2015-Mar-26 03:33N 48°31' W 122°37'0 0.0
2015-Mar-26 02:33N 48°31' W 122°37'0 0.0
2015-Mar-26 01:33N 48°31' W 122°37'9 8.4
2015-Mar-26 00:33N 48°24' W 122°44'10 9.3
2015-Mar-25 23:29N 48°15' W 122°48'1010.3
2015-Mar-25 22:31N 48°07' W 122°39'911.7
2015-Mar-25 21:44N 47°58' W 122°34'211.9
2015-Mar-25 21:33N 47°57' W 122°32'110.1
2015-Mar-25 21:29N 47°56' W 122°31'1010.7
2015-Mar-25 20:33N 47°47' W 122°26'210.1
2015-Mar-25 20:24N 47°46' W 122°25'910.6
2015-Mar-25 19:33N 47°37' W 122°27'1 9.2
2015-Mar-25 19:29N 47°36' W 122°27'7 7.0
2015-Mar-25 18:33N 47°34' W 122°36'1 8.7
2015-Mar-25 18:29N 47°34' W 122°37'0 0.2
2015-Mar-25 17:33N 47°33' W 122°37'0 6.1
2015-Mar-25 17:29N 47°34' W 122°36'4 4.2
2015-Mar-25 16:33N 47°34' W 122°31'0 5.9
2015-Mar-25 16:29N 47°34' W 122°30'6 6.4
2015-Mar-25 15:33N 47°40' W 122°29'0 6.5
2015-Mar-25 15:29N 47°41' W 122°28'7 7.3
2015-Mar-25 14:33N 47°47' W 122°27'7 7.3
2015-Mar-25 13:33N 47°54' W 122°22'7 6.9
2015-Mar-25 12:33N 47°59' W 122°15'1 0.5
2015-Mar-25 11:32N 47°59' W 122°14'3 2.7
2015-Mar-25 10:35N 47°58' W 122°17'0 9.8
2015-Mar-25 10:33N 47°58' W 122°18'4 9.4
2015-Mar-25 10:05N 47°54' W 122°21'5 9.9
2015-Mar-25 09:33N 47°49' W 122°24'0 9.3
2015-Mar-25 09:31N 47°49' W 122°25'1010.9
2015-Mar-25 08:33N 47°38' W 122°27'0 9.4
2015-Mar-25 08:31N 47°38' W 122°27'1010.6
2015-Mar-25 07:33N 47°28' W 122°24'9 8.5
2015-Mar-25 06:33N 47°20' W 122°26'0 8.6
2015-Mar-25 06:31N 47°19' W 122°26'4 4.1
2015-Mar-25 05:33N 47°15' W 122°26'0 0.0
2015-Mar-25 04:33N 47°15' W 122°26'0 0.0
2015-Mar-25 03:33N 47°15' W 122°26'0 0.0
2015-Mar-25 02:33N 47°15' W 122°26'0 0.0
2015-Mar-25 01:33N 47°15' W 122°26'0 0.0
2015-Mar-25 00:33N 47°15' W 122°26'0 0.0
2015-Mar-24 23:33N 47°15' W 122°26'0 0.0
2015-Mar-24 22:33N 47°15' W 122°26'0 0.0
2015-Mar-24 21:33N 47°15' W 122°26'0 0.0
2015-Mar-24 20:33N 47°15' W 122°26'0 0.0
2015-Mar-24 19:28N 47°15' W 122°26'0 0.0
2015-Mar-24 18:33N 47°15' W 122°26'3 2.6
2015-Mar-24 17:33N 47°16' W 122°22'0 0.1
2015-Mar-24 16:33N 47°16' W 122°22'3 2.6
2015-Mar-24 15:33N 47°17' W 122°25'1 1.1
2015-Mar-24 14:33N 47°17' W 122°25'2 1.8
2015-Mar-24 13:33N 47°15' W 122°23'3 3.1
2015-Mar-24 12:33N 47°18' W 122°26'0 0.2
2015-Mar-24 11:33N 47°18' W 122°26'0 0.0
2015-Mar-24 10:33N 47°18' W 122°26'0 0.0
2015-Mar-24 09:33N 47°18' W 122°26'0 0.0
2015-Mar-24 08:33N 47°18' W 122°26'0 0.0
2015-Mar-24 07:33N 47°18' W 122°26'3 2.6
2015-Mar-24 06:33N 47°16' W 122°23'1 1.0
2015-Mar-24 05:33N 47°16' W 122°24'2 1.4
2015-Mar-24 04:30N 47°18' W 122°26'2 1.9
2015-Mar-24 03:32N 47°16' W 122°24'1 1.1
2015-Mar-24 02:33N 47°16' W 122°23'0 0.4
2015-Mar-24 01:33N 47°16' W 122°23'1 1.3
2015-Mar-24 00:33N 47°17' W 122°25'1 0.6
2015-Mar-23 23:33N 47°16' W 122°25'1 1.5
2015-Mar-23 22:33N 47°16' W 122°23'1 1.1
2015-Mar-23 21:33N 47°17' W 122°25'0 0.1
2015-Mar-23 20:33N 47°17' W 122°25'2 1.6
2015-Mar-23 19:33N 47°15' W 122°26'0 0.0
2015-Mar-23 18:33N 47°15' W 122°26'0 0.0
2015-Mar-23 17:33N 47°15' W 122°26'0 0.0
2015-Mar-23 16:33N 47°15' W 122°26'0 0.0
2015-Mar-23 15:33N 47°15' W 122°26'2 1.6
2015-Mar-23 14:33N 47°17' W 122°25'1 0.9
2015-Mar-23 13:33N 47°16' W 122°24'2 1.7
2015-Mar-23 12:33N 47°17' W 122°25'0 0.5
2015-Mar-23 11:33N 47°18' W 122°26'2 2.0
2015-Mar-23 10:32N 47°16' W 122°24'1 1.0
2015-Mar-23 09:33N 47°15' W 122°23'0 0.2
2015-Mar-23 08:33N 47°15' W 122°23'0 0.1
2015-Mar-23 07:33N 47°16' W 122°23'0 0.0
2015-Mar-23 06:33N 47°16' W 122°23'0 0.0
2015-Mar-23 05:33N 47°16' W 122°23'0 0.0
2015-Mar-23 04:33N 47°16' W 122°23'5 4.7
2015-Mar-23 03:33N 47°19' W 122°27'2 7.9
2015-Mar-23 03:22N 47°20' W 122°26'6 7.4
2015-Mar-23 02:33N 47°26' W 122°24'1 9.1
2015-Mar-23 02:26N 47°27' W 122°25'8 8.8
2015-Mar-23 01:33N 47°35' W 122°25'0 8.5
2015-Mar-23 01:32N 47°35' W 122°25'3 3.1
2015-Mar-23 00:33N 47°35' W 122°21'0 0.4
2015-Mar-23 00:32N 47°35' W 122°21'2 1.8
2015-Mar-22 23:32N 47°37' W 122°21'0 0.1
2015-Mar-22 23:25N 47°37' W 122°21'2 2.2
2015-Mar-22 22:33N 47°35' W 122°21'0 0.0
2015-Mar-22 22:31N 47°35' W 122°21'0 0.0
2015-Mar-22 21:33N 47°35' W 122°21'0 0.0
2015-Mar-22 21:26N 47°35' W 122°21'0 0.0
2015-Mar-22 20:33N 47°35' W 122°21'0 0.0
2015-Mar-22 20:25N 47°35' W 122°21'0 0.0
2015-Mar-22 19:33N 47°35' W 122°21'0 1.1
2015-Mar-22 19:30N 47°35' W 122°21'1 0.6
2015-Mar-22 18:33N 47°35' W 122°22'0 0.0
2015-Mar-22 18:31N 47°35' W 122°22'1 1.1
2015-Mar-22 17:33N 47°36' W 122°22'0 0.8
2015-Mar-22 17:31N 47°36' W 122°23'2 2.6
2015-Mar-22 16:33N 47°35' W 122°26'110.5
2015-Mar-22 16:31N 47°34' W 122°26'1010.9
2015-Mar-22 15:33N 47°24' W 122°22'8 7.9
2015-Mar-22 14:33N 47°16' W 122°25'2 1.5
2015-Mar-22 13:33N 47°18' W 122°26'2 1.7
2015-Mar-22 12:33N 47°16' W 122°24'0 0.1
2015-Mar-22 11:33N 47°16' W 122°24'1 1.5
2015-Mar-22 10:33N 47°15' W 122°23'0 0.0
2015-Mar-22 09:33N 47°15' W 122°23'1 1.0
2015-Mar-22 08:32N 47°16' W 122°24'0 0.0
2015-Mar-22 07:31N 47°16' W 122°24'0 0.0
2015-Mar-22 06:30N 47°16' W 122°24'0 0.0
2015-Mar-22 04:33N 47°16' W 122°24'0 0.0
2015-Mar-22 03:33N 47°16' W 122°24'0 0.0
2015-Mar-22 02:33N 47°16' W 122°24'1 1.1
2015-Mar-22 01:33N 47°17' W 122°25'0 0.4
2015-Mar-22 00:33N 47°17' W 122°25'1 1.2
2015-Mar-21 23:33N 47°18' W 122°26'2 2.2
2015-Mar-21 22:33N 47°15' W 122°26'0 0.0
2015-Mar-21 21:33N 47°15' W 122°26'0 0.0
2015-Mar-21 20:33N 47°15' W 122°26'0 0.0
2015-Mar-21 19:33N 47°15' W 122°26'0 0.0
2015-Mar-21 18:33N 47°15' W 122°26'0 0.0
2015-Mar-21 17:33N 47°15' W 122°26'0 0.0
2015-Mar-21 16:33N 47°15' W 122°26'0 0.0
2015-Mar-21 15:33N 47°15' W 122°26'2 1.7
2015-Mar-21 14:32N 47°16' W 122°24'0 0.2
2015-Mar-21 13:33N 47°16' W 122°24'1 0.9
2015-Mar-21 12:33N 47°15' W 122°23'1 1.4
2015-Mar-21 11:33N 47°16' W 122°24'0 0.1
2015-Mar-21 10:33N 47°16' W 122°24'1 1.0
2015-Mar-21 09:33N 47°16' W 122°23'2 2.0
2015-Mar-21 08:33N 47°15' W 122°26'0 0.0
2015-Mar-21 07:33N 47°15' W 122°26'0 0.0
2015-Mar-21 06:33N 47°15' W 122°26'0 0.0
2015-Mar-21 05:33N 47°15' W 122°26'0 0.0
2015-Mar-21 04:33N 47°15' W 122°26'0 0.0
2015-Mar-21 03:33N 47°15' W 122°26'3 2.9
2015-Mar-21 02:33N 47°18' W 122°27'7 7.2
2015-Mar-21 01:33N 47°25' W 122°23'3 8.8
2015-Mar-21 01:11N 47°27' W 122°25'6 9.2
2015-Mar-21 00:33N 47°33' W 122°27'0 9.9
2015-Mar-21 00:31N 47°34' W 122°27'4 4.7
2015-Mar-20 23:33N 47°35' W 122°21'0 0.3
2015-Mar-20 23:31N 47°35' W 122°21'2 2.0
2015-Mar-20 22:33N 47°37' W 122°21'0 0.0
2015-Mar-20 22:26N 47°37' W 122°21'2 2.1
2015-Mar-20 21:33N 47°35' W 122°21'0 0.0
2015-Mar-20 21:25N 47°35' W 122°21'0 0.0
2015-Mar-20 20:33N 47°35' W 122°21'0 0.1
2015-Mar-20 20:30N 47°35' W 122°21'1 0.7
2015-Mar-20 19:33N 47°35' W 122°21'0 0.1
2015-Mar-20 19:29N 47°35' W 122°21'0 0.4
2015-Mar-20 18:33N 47°36' W 122°21'0 0.3
2015-Mar-20 18:29N 47°36' W 122°21'0 0.1
2015-Mar-20 17:33N 47°35' W 122°21'0 0.6
2015-Mar-20 17:29N 47°35' W 122°21'0 0.1
2015-Mar-20 16:33N 47°35' W 122°21'0 0.1
2015-Mar-20 16:29N 47°35' W 122°21'0 0.0
2015-Mar-20 15:33N 47°35' W 122°21'0 0.0
2015-Mar-20 15:29N 47°35' W 122°21'0 0.0
2015-Mar-20 14:33N 47°35' W 122°21'0 0.0
2015-Mar-20 14:29N 47°35' W 122°21'4 4.0
2015-Mar-20 13:33N 47°34' W 122°26'1 9.1
2015-Mar-20 13:29N 47°33' W 122°26'9 9.5
2015-Mar-20 12:33N 47°25' W 122°22'2 8.7
2015-Mar-20 12:18N 47°23' W 122°21'6 7.8
2015-Mar-20 11:33N 47°18' W 122°26'0 0.2
2015-Mar-20 10:33N 47°18' W 122°26'0 0.0
2015-Mar-20 09:33N 47°18' W 122°26'2 1.8
2015-Mar-20 08:30N 47°17' W 122°23'0 0.3
2015-Mar-20 07:31N 47°17' W 122°24'4 7.1
2015-Mar-20 06:57N 47°20' W 122°27'410.6
2015-Mar-20 06:33N 47°23' W 122°22'510.1
2015-Mar-20 06:03N 47°28' W 122°25'510.2
2015-Mar-20 05:33N 47°33' W 122°27'5 4.7
2015-Mar-20 04:33N 47°35' W 122°21'0 0.0
2015-Mar-20 04:33N 47°35' W 122°21'4 4.1
2015-Mar-20 03:33N 47°32' W 122°25'10 9.6
2015-Mar-20 02:33N 47°23' W 122°21'6 6.3
2015-Mar-20 01:33N 47°18' W 122°26'0 0.0
2015-Mar-20 00:33N 47°18' W 122°26'0 0.0
2015-Mar-19 23:33N 47°18' W 122°26'0 0.0
2015-Mar-19 22:32N 47°18' W 122°26'0 0.0
2015-Mar-19 21:33N 47°18' W 122°26'0 0.0
2015-Mar-19 20:33N 47°18' W 122°26'0 0.0
2015-Mar-19 19:27N 47°18' W 122°26'1 1.6
2015-Mar-19 18:33N 47°16' W 122°25'1 0.8
2015-Mar-19 17:08N 47°15' W 122°26'0 0.0
2015-Mar-19 16:33N 47°15' W 122°26'0 0.0
2015-Mar-19 15:33N 47°15' W 122°26'0 0.0
2015-Mar-19 14:33N 47°15' W 122°26'2 1.6
2015-Mar-19 13:33N 47°17' W 122°25'1 1.3
2015-Mar-19 12:33N 47°17' W 122°23'0 0.0
2015-Mar-19 11:33N 47°17' W 122°23'1 1.1
2015-Mar-19 10:32N 47°16' W 122°25'0 0.0
2015-Mar-19 09:33N 47°16' W 122°25'1 0.5
2015-Mar-19 08:33N 47°17' W 122°24'0 0.4
2015-Mar-19 07:33N 47°16' W 122°24'0 0.0
2015-Mar-19 06:33N 47°16' W 122°24'0 0.0
2015-Mar-19 05:33N 47°16' W 122°24'0 0.3
2015-Mar-19 04:33N 47°16' W 122°24'0 0.3
2015-Mar-19 03:33N 47°16' W 122°24'0 0.0
2015-Mar-19 02:33N 47°16' W 122°24'2 1.5
2015-Mar-19 01:33N 47°17' W 122°26'2 1.5
2015-Mar-19 00:33N 47°16' W 122°24'0 0.3
2015-Mar-18 23:33N 47°17' W 122°24'1 1.3
2015-Mar-18 22:33N 47°16' W 122°26'1 0.8
2015-Mar-18 21:33N 47°15' W 122°26'0 0.0
2015-Mar-18 20:33N 47°15' W 122°26'0 0.0
2015-Mar-18 19:33N 47°15' W 122°26'0 0.0
2015-Mar-18 18:33N 47°15' W 122°26'0 0.0
2015-Mar-18 17:33N 47°15' W 122°26'0 0.0
2015-Mar-18 16:33N 47°15' W 122°26'0 0.0
2015-Mar-18 15:33N 47°15' W 122°26'0 0.0
2015-Mar-18 14:33N 47°15' W 122°26'2 1.8
2015-Mar-18 13:33N 47°16' W 122°24'0 0.4
2015-Mar-18 12:33N 47°16' W 122°24'2 1.8
2015-Mar-18 11:33N 47°18' W 122°26'0 0.0
2015-Mar-18 10:33N 47°18' W 122°26'0 0.0
2015-Mar-18 09:33N 47°18' W 122°26'0 0.0
2015-Mar-18 08:33N 47°18' W 122°26'0 0.0
2015-Mar-18 07:33N 47°18' W 122°26'0 0.0
2015-Mar-18 06:33N 47°18' W 122°26'2 2.2
2015-Mar-18 05:33N 47°16' W 122°24'2 1.6
2015-Mar-18 04:33N 47°17' W 122°25'3 9.2
2015-Mar-18 04:12N 47°20' W 122°27'6 8.6
2015-Mar-18 03:33N 47°25' W 122°23'4 9.8
2015-Mar-18 03:07N 47°30' W 122°24'610.1
2015-Mar-18 02:33N 47°35' W 122°25'0 9.6
2015-Mar-18 02:32N 47°35' W 122°25'3 2.8
2015-Mar-18 01:33N 47°35' W 122°21'1 0.8
2015-Mar-18 00:51N 47°35' W 122°21'0 0.0
2015-Mar-18 00:33N 47°35' W 122°21'0 1.2
2015-Mar-18 00:30N 47°35' W 122°21'5 5.3
2015-Mar-17 23:33N 47°31' W 122°25'1 9.9
2015-Mar-17 23:26N 47°29' W 122°24'8 8.8
2015-Mar-17 22:33N 47°22' W 122°23'5 5.2
2015-Mar-17 21:33N 47°17' W 122°25'1 1.2
2015-Mar-17 20:33N 47°16' W 122°26'1 0.7
2015-Mar-17 19:33N 47°15' W 122°26'0 0.0
2015-Mar-17 18:33N 47°15' W 122°26'0 0.0
2015-Mar-17 17:33N 47°15' W 122°26'  

Dump ship's entire track history